createdAt,value
2017-12-25T00:00:52.221Z,1012.33
2017-12-25T00:01:52.817Z,1012.35
2017-12-25T00:02:53.417Z,1012.36
2017-12-25T00:03:54.026Z,1012.31
2017-12-25T00:04:54.643Z,1012.30
2017-12-25T00:05:55.255Z,1012.29
2017-12-25T00:06:55.852Z,1012.31
2017-12-25T00:07:56.450Z,1012.26
2017-12-25T00:08:57.046Z,1012.32
2017-12-25T00:09:57.649Z,1012.28
2017-12-25T00:10:58.262Z,1012.29
2017-12-25T00:11:58.876Z,1012.35
2017-12-25T00:12:59.466Z,1012.31
2017-12-25T00:14:00.059Z,1012.34
2017-12-25T00:15:00.657Z,1012.31
2017-12-25T00:16:01.261Z,1012.32
2017-12-25T00:17:01.873Z,1012.29
2017-12-25T00:18:02.470Z,1012.29
2017-12-25T00:19:03.070Z,1012.29
2017-12-25T00:20:03.677Z,1012.31
2017-12-25T00:21:04.280Z,1012.34
2017-12-25T00:22:04.873Z,1012.24
2017-12-25T00:23:05.474Z,1012.27
2017-12-25T00:24:06.077Z,1012.20
2017-12-25T00:25:06.675Z,1012.25
2017-12-25T00:26:07.268Z,1012.15
2017-12-25T00:27:07.870Z,1012.24
2017-12-25T00:28:08.468Z,1012.23
2017-12-25T00:29:09.060Z,1012.24
2017-12-25T00:30:09.665Z,1012.17
2017-12-25T00:31:10.274Z,1012.23
2017-12-25T00:32:10.877Z,1012.22
2017-12-25T00:33:11.480Z,1012.16
2017-12-25T00:34:12.081Z,1012.15
2017-12-25T00:35:12.692Z,1012.18
2017-12-25T00:36:13.306Z,1012.16
2017-12-25T00:37:13.917Z,1012.20
2017-12-25T00:38:14.526Z,1012.14
2017-12-25T00:39:15.127Z,1012.15
2017-12-25T00:40:15.729Z,1012.19
2017-12-25T00:41:16.324Z,1012.21
2017-12-25T00:42:16.933Z,1012.14
2017-12-25T00:43:17.527Z,1012.17
2017-12-25T00:44:18.131Z,1012.12
2017-12-25T00:45:18.731Z,1012.21
2017-12-25T00:46:19.324Z,1012.17
2017-12-25T00:47:19.927Z,1012.16
2017-12-25T00:48:20.523Z,1012.21
2017-12-25T00:49:21.123Z,1012.18
2017-12-25T00:50:21.726Z,1012.12
2017-12-25T00:51:22.339Z,1012.16
2017-12-25T00:52:22.946Z,1012.15
2017-12-25T00:53:23.546Z,1012.13
2017-12-25T00:54:24.136Z,1012.08
2017-12-25T00:55:24.745Z,1012.11
2017-12-25T00:56:25.350Z,1012.09
2017-12-25T00:57:25.953Z,1012.10
2017-12-25T00:58:26.600Z,1012.02
2017-12-25T00:59:27.151Z,1012.08
2017-12-25T01:00:27.752Z,1011.99
2017-12-25T01:01:28.367Z,1011.95
2017-12-25T01:02:28.973Z,1011.91
2017-12-25T01:03:29.568Z,1011.98
2017-12-25T01:04:30.175Z,1011.98
2017-12-25T01:05:30.777Z,1011.94
2017-12-25T01:06:31.373Z,1011.98
2017-12-25T01:07:31.974Z,1011.95
2017-12-25T01:08:32.580Z,1011.92
2017-12-25T01:09:33.191Z,1011.89
2017-12-25T01:10:33.793Z,1011.88
2017-12-25T01:11:34.390Z,1011.82
2017-12-25T01:12:35.012Z,1011.88
2017-12-25T01:13:35.602Z,1011.86
2017-12-25T01:14:36.207Z,1011.90
2017-12-25T01:15:36.816Z,1011.86
2017-12-25T01:16:37.414Z,1011.82
2017-12-25T01:17:38.008Z,1011.84
2017-12-25T01:18:38.609Z,1011.84
2017-12-25T01:19:39.213Z,1011.80
2017-12-25T01:20:39.811Z,1011.80
2017-12-25T01:21:40.421Z,1011.81
2017-12-25T01:22:41.021Z,1011.82
2017-12-25T01:23:41.635Z,1011.83
2017-12-25T01:24:42.248Z,1011.80
2017-12-25T01:25:42.862Z,1011.78
2017-12-25T01:26:43.453Z,1011.77
2017-12-25T01:27:44.057Z,1011.80
2017-12-25T01:28:44.648Z,1011.76
2017-12-25T01:29:45.252Z,1011.79
2017-12-25T01:30:45.857Z,1011.76
2017-12-25T01:31:46.465Z,1011.79
2017-12-25T01:32:47.070Z,1011.79
2017-12-25T01:33:47.666Z,1011.80
2017-12-25T01:34:48.275Z,1011.83
2017-12-25T01:35:48.874Z,1011.75
2017-12-25T01:36:49.489Z,1011.74
2017-12-25T01:37:50.094Z,1011.78
2017-12-25T01:38:50.722Z,1011.76
2017-12-25T01:39:51.316Z,1011.75
2017-12-25T01:40:51.912Z,1011.72
2017-12-25T01:41:52.513Z,1011.68
2017-12-25T01:42:53.115Z,1011.77
2017-12-25T01:43:53.723Z,1011.77
2017-12-25T01:44:54.338Z,1011.75
2017-12-25T01:45:54.950Z,1011.80
2017-12-25T01:46:55.554Z,1011.73
2017-12-25T01:47:56.150Z,1011.72
2017-12-25T01:48:56.758Z,1011.71
2017-12-25T01:49:57.368Z,1011.75
2017-12-25T01:50:57.978Z,1011.70
2017-12-25T01:51:58.577Z,1011.73
2017-12-25T01:52:59.177Z,1011.78
2017-12-25T01:53:59.773Z,1011.75
2017-12-25T01:55:00.362Z,1011.74
2017-12-25T01:56:00.956Z,1011.78
2017-12-25T01:57:01.555Z,1011.74
2017-12-25T01:58:02.156Z,1011.73
2017-12-25T01:59:02.768Z,1011.74
2017-12-25T02:00:03.380Z,1011.76
2017-12-25T02:01:03.967Z,1011.77
2017-12-25T02:02:04.565Z,1011.72
2017-12-25T02:03:05.171Z,1011.68
2017-12-25T02:04:05.787Z,1011.76
2017-12-25T02:05:06.384Z,1011.74
2017-12-25T02:06:06.995Z,1011.71
2017-12-25T02:07:07.582Z,1011.68
2017-12-25T02:08:08.183Z,1011.75
2017-12-25T02:09:08.780Z,1011.73
2017-12-25T02:10:09.376Z,1011.70
2017-12-25T02:11:09.982Z,1011.67
2017-12-25T02:12:10.595Z,1011.68
2017-12-25T02:13:11.203Z,1011.64
2017-12-25T02:14:11.806Z,1011.67
2017-12-25T02:15:12.420Z,1011.60
2017-12-25T02:16:13.030Z,1011.55
2017-12-25T02:17:13.629Z,1011.62
2017-12-25T02:18:14.229Z,1011.59
2017-12-25T02:19:14.836Z,1011.59
2017-12-25T02:20:15.435Z,1011.60
2017-12-25T02:21:16.048Z,1011.59
2017-12-25T02:22:16.660Z,1011.51
2017-12-25T02:23:17.252Z,1011.56
2017-12-25T02:24:17.880Z,1011.54
2017-12-25T02:25:18.472Z,1011.45
2017-12-25T02:26:19.071Z,1011.54
2017-12-25T02:27:19.690Z,1011.50
2017-12-25T02:28:20.291Z,1011.47
2017-12-25T02:29:20.897Z,1011.49
2017-12-25T02:30:21.508Z,1011.48
2017-12-25T02:31:22.118Z,1011.42
2017-12-25T02:32:22.732Z,1011.39
2017-12-25T02:33:23.327Z,1011.32
2017-12-25T02:34:23.934Z,1011.33
2017-12-25T02:35:24.529Z,1011.33
2017-12-25T02:36:25.132Z,1011.35
2017-12-25T02:37:25.728Z,1011.35
2017-12-25T02:38:26.331Z,1011.36
2017-12-25T02:39:26.931Z,1011.33
2017-12-25T02:40:27.533Z,1011.30
2017-12-25T02:41:28.130Z,1011.31
2017-12-25T02:42:28.720Z,1011.34
2017-12-25T02:43:29.332Z,1011.35
2017-12-25T02:44:29.992Z,1011.24
2017-12-25T02:45:30.610Z,1011.34
2017-12-25T02:46:31.215Z,1011.37
2017-12-25T02:47:31.824Z,1011.35
2017-12-25T02:48:32.428Z,1011.28
2017-12-25T02:49:33.034Z,1011.29
2017-12-25T02:50:33.639Z,1011.37
2017-12-25T02:51:34.240Z,1011.24
2017-12-25T02:52:34.849Z,1011.23
2017-12-25T02:53:35.452Z,1011.20
2017-12-25T02:54:36.046Z,1011.19
2017-12-25T02:55:36.651Z,1011.21
2017-12-25T02:56:37.259Z,1011.16
2017-12-25T02:57:37.872Z,1011.19
2017-12-25T02:58:38.464Z,1011.18
2017-12-25T02:59:39.065Z,1011.21
2017-12-25T03:00:39.665Z,1011.18
2017-12-25T03:01:40.275Z,1011.23
2017-12-25T03:02:40.883Z,1011.23
2017-12-25T03:03:41.476Z,1011.20
2017-12-25T03:04:42.078Z,1011.18
2017-12-25T03:05:42.673Z,1011.17
2017-12-25T03:06:43.274Z,1011.16
2017-12-25T03:07:43.881Z,1011.17
2017-12-25T03:08:44.493Z,1011.19
2017-12-25T03:09:45.103Z,1011.17
2017-12-25T03:10:45.703Z,1011.19
2017-12-25T03:11:46.307Z,1011.17
2017-12-25T03:12:46.907Z,1011.14
2017-12-25T03:13:47.509Z,1011.16
2017-12-25T03:14:48.108Z,1011.16
2017-12-25T03:15:48.701Z,1011.14
2017-12-25T03:16:49.329Z,1011.14
2017-12-25T03:17:49.893Z,1011.12
2017-12-25T03:18:50.491Z,1011.15
2017-12-25T03:19:51.088Z,1011.13
2017-12-25T03:20:51.691Z,1011.10
2017-12-25T03:21:52.297Z,1011.15
2017-12-25T03:22:52.911Z,1011.11
2017-12-25T03:23:53.523Z,1011.12
2017-12-25T03:24:54.124Z,1011.10
2017-12-25T03:25:54.724Z,1011.11
2017-12-25T03:26:55.331Z,1011.10
2017-12-25T03:27:55.926Z,1011.07
2017-12-25T03:28:56.522Z,1011.03
2017-12-25T03:29:57.132Z,1011.06
2017-12-25T03:30:57.734Z,1011.04
2017-12-25T03:31:58.336Z,1010.97
2017-12-25T03:32:58.944Z,1011.02
2017-12-25T03:33:59.550Z,1011.03
2017-12-25T03:35:00.146Z,1010.96
2017-12-25T03:36:00.745Z,1010.98
2017-12-25T03:37:01.334Z,1010.89
2017-12-25T03:38:01.936Z,1010.93
2017-12-25T03:39:02.542Z,1010.94
2017-12-25T03:40:03.142Z,1010.89
2017-12-25T03:41:03.751Z,1010.85
2017-12-25T03:42:04.359Z,1010.88
2017-12-25T03:43:04.955Z,1010.84
2017-12-25T03:44:05.555Z,1010.88
2017-12-25T03:45:06.146Z,1010.75
2017-12-25T03:46:06.735Z,1010.82
2017-12-25T03:47:07.338Z,1010.80
2017-12-25T03:48:07.936Z,1010.80
2017-12-25T03:49:08.534Z,1010.76
2017-12-25T03:50:09.126Z,1010.74
2017-12-25T03:51:09.719Z,1010.76
2017-12-25T03:52:10.319Z,1010.75
2017-12-25T03:53:10.916Z,1010.73
2017-12-25T03:54:11.515Z,1010.73
2017-12-25T03:55:12.117Z,1010.74
2017-12-25T03:56:12.737Z,1010.75
2017-12-25T03:57:13.338Z,1010.75
2017-12-25T03:58:13.950Z,1010.71
2017-12-25T03:59:14.546Z,1010.70
2017-12-25T04:00:15.137Z,1010.69
2017-12-25T04:01:15.729Z,1010.67
2017-12-25T04:02:16.331Z,1010.68
2017-12-25T04:03:16.924Z,1010.69
2017-12-25T04:04:17.521Z,1010.66
2017-12-25T04:05:18.125Z,1010.63
2017-12-25T04:06:18.712Z,1010.61
2017-12-25T04:07:19.317Z,1010.59
2017-12-25T04:08:19.907Z,1010.58
2017-12-25T04:09:20.508Z,1010.56
2017-12-25T04:10:21.113Z,1010.59
2017-12-25T04:11:21.706Z,1010.57
2017-12-25T04:12:22.320Z,1010.57
2017-12-25T04:13:22.928Z,1010.55
2017-12-25T04:14:23.525Z,1010.52
2017-12-25T04:15:24.136Z,1010.49
2017-12-25T04:16:24.724Z,1010.47
2017-12-25T04:17:25.317Z,1010.48
2017-12-25T04:18:25.918Z,1010.43
2017-12-25T04:19:26.511Z,1010.37
2017-12-25T04:20:27.113Z,1010.39
2017-12-25T04:21:27.712Z,1010.38
2017-12-25T04:22:28.311Z,1010.39
2017-12-25T04:23:28.915Z,1010.37
2017-12-25T04:24:29.514Z,1010.34
2017-12-25T04:25:30.123Z,1010.31
2017-12-25T04:26:30.736Z,1010.35
2017-12-25T04:27:31.339Z,1010.33
2017-12-25T04:28:31.936Z,1010.30
2017-12-25T04:29:32.554Z,1010.35
2017-12-25T04:30:33.162Z,1010.32
2017-12-25T04:31:33.758Z,1010.31
2017-12-25T04:32:34.358Z,1010.29
2017-12-25T04:33:34.976Z,1010.26
2017-12-25T04:34:35.571Z,1010.32
2017-12-25T04:35:36.179Z,1010.26
2017-12-25T04:36:36.772Z,1010.19
2017-12-25T04:37:37.379Z,1010.23
2017-12-25T04:38:37.970Z,1010.21
2017-12-25T04:39:38.572Z,1010.24
2017-12-25T04:40:39.166Z,1010.24
2017-12-25T04:41:39.755Z,1010.19
2017-12-25T04:42:40.359Z,1010.21
2017-12-25T04:43:40.963Z,1010.20
2017-12-25T04:44:41.566Z,1010.15
2017-12-25T04:45:42.179Z,1010.23
2017-12-25T04:46:42.782Z,1010.21
2017-12-25T04:47:43.391Z,1010.22
2017-12-25T04:48:43.994Z,1010.21
2017-12-25T04:49:44.597Z,1010.17
2017-12-25T04:50:45.198Z,1010.22
2017-12-25T04:51:45.798Z,1010.16
2017-12-25T04:52:46.406Z,1010.22
2017-12-25T04:53:47.021Z,1010.22
2017-12-25T04:54:47.628Z,1010.21
2017-12-25T04:55:48.226Z,1010.20
2017-12-25T04:56:48.841Z,1010.18
2017-12-25T04:57:49.463Z,1010.21
2017-12-25T04:58:50.050Z,1010.16
2017-12-25T04:59:50.646Z,1010.15
2017-12-25T05:00:51.232Z,1010.11
2017-12-25T05:01:51.835Z,1010.14
2017-12-25T05:02:52.442Z,1010.10
2017-12-25T05:03:53.056Z,1010.09
2017-12-25T05:04:53.648Z,1010.11
2017-12-25T05:05:54.257Z,1010.11
2017-12-25T05:06:54.867Z,1010.11
2017-12-25T05:07:55.474Z,1010.07
2017-12-25T05:08:56.077Z,1010.09
2017-12-25T05:09:56.683Z,1010.13
2017-12-25T05:10:57.282Z,1010.11
2017-12-25T05:11:57.889Z,1010.03
2017-12-25T05:12:58.483Z,1010.06
2017-12-25T05:13:59.083Z,1010.04
2017-12-25T05:14:59.681Z,1010.02
2017-12-25T05:16:00.273Z,1010.08
2017-12-25T05:17:00.873Z,1010.04
2017-12-25T05:18:01.480Z,1010.02
2017-12-25T05:19:02.085Z,1010.02
2017-12-25T05:20:02.679Z,1010.01
2017-12-25T05:21:03.283Z,1010.00
2017-12-25T05:22:03.895Z,1009.98
2017-12-25T05:23:04.498Z,1009.96
2017-12-25T05:24:05.101Z,1010.04
2017-12-25T05:25:05.696Z,1009.99
2017-12-25T05:26:06.307Z,1009.98
2017-12-25T05:27:06.918Z,1009.97
2017-12-25T05:28:07.517Z,1010.00
2017-12-25T05:29:08.119Z,1009.96
2017-12-25T05:30:08.720Z,1009.96
2017-12-25T05:31:09.310Z,1009.93
2017-12-25T05:32:09.911Z,1009.90
2017-12-25T05:33:10.524Z,1009.88
2017-12-25T05:34:11.120Z,1009.88
2017-12-25T05:35:11.735Z,1009.84
2017-12-25T05:36:12.346Z,1009.85
2017-12-25T05:37:12.945Z,1009.80
2017-12-25T05:38:13.546Z,1009.85
2017-12-25T05:39:14.147Z,1009.80
2017-12-25T05:40:14.739Z,1009.82
2017-12-25T05:41:15.342Z,1009.80
2017-12-25T05:42:15.940Z,1009.85
2017-12-25T05:43:16.548Z,1009.84
2017-12-25T05:44:17.141Z,1009.92
2017-12-25T05:45:17.750Z,1009.83
2017-12-25T05:46:18.349Z,1009.81
2017-12-25T05:47:18.939Z,1009.82
2017-12-25T05:48:19.543Z,1009.86
2017-12-25T05:49:20.149Z,1009.79
2017-12-25T05:50:20.752Z,1009.86
2017-12-25T05:51:21.356Z,1009.82
2017-12-25T05:52:21.944Z,1009.78
2017-12-25T05:53:22.549Z,1009.79
2017-12-25T05:54:23.146Z,1009.77
2017-12-25T05:55:23.746Z,1009.82
2017-12-25T05:56:24.346Z,1009.76
2017-12-25T05:57:24.954Z,1009.80
2017-12-25T05:58:25.545Z,1009.80
2017-12-25T05:59:26.137Z,1009.83
2017-12-25T06:00:26.745Z,1009.77
2017-12-25T06:01:27.341Z,1009.82
2017-12-25T06:02:27.949Z,1009.80
2017-12-25T06:03:28.547Z,1009.78
2017-12-25T06:04:29.140Z,1009.72
2017-12-25T06:05:29.742Z,1009.73
2017-12-25T06:06:30.341Z,1009.78
2017-12-25T06:07:30.927Z,1009.75
2017-12-25T06:08:31.529Z,1009.75
2017-12-25T06:09:32.120Z,1009.78
2017-12-25T06:10:32.724Z,1009.74
2017-12-25T06:11:33.326Z,1009.84
2017-12-25T06:12:33.927Z,1009.78
2017-12-25T06:13:34.537Z,1009.80
2017-12-25T06:14:35.129Z,1009.79
2017-12-25T06:15:35.739Z,1009.79
2017-12-25T06:16:36.328Z,1009.75
2017-12-25T06:17:36.940Z,1009.83
2017-12-25T06:18:37.556Z,1009.75
2017-12-25T06:19:38.151Z,1009.73
2017-12-25T06:20:38.763Z,1009.75
2017-12-25T06:21:39.361Z,1009.75
2017-12-25T06:22:39.966Z,1009.69
2017-12-25T06:23:40.555Z,1009.70
2017-12-25T06:24:41.155Z,1009.66
2017-12-25T06:25:41.755Z,1009.68
2017-12-25T06:26:42.351Z,1009.69
2017-12-25T06:27:42.960Z,1009.69
2017-12-25T06:28:43.563Z,1009.66
2017-12-25T06:29:44.162Z,1009.64
2017-12-25T06:30:44.773Z,1009.61
2017-12-25T06:31:45.381Z,1009.66
2017-12-25T06:32:45.980Z,1009.59
2017-12-25T06:33:46.592Z,1009.69
2017-12-25T06:34:47.197Z,1009.72
2017-12-25T06:35:47.796Z,1009.67
2017-12-25T06:36:48.392Z,1009.61
2017-12-25T06:37:48.996Z,1009.67
2017-12-25T06:38:49.607Z,1009.59
2017-12-25T06:39:50.205Z,1009.59
2017-12-25T06:40:50.799Z,1009.55
2017-12-25T06:41:51.400Z,1009.58
2017-12-25T06:42:52.003Z,1009.54
2017-12-25T06:43:52.601Z,1009.59
2017-12-25T06:44:53.189Z,1009.56
2017-12-25T06:45:53.786Z,1009.49
2017-12-25T06:46:54.379Z,1009.49
2017-12-25T06:47:54.981Z,1009.51
2017-12-25T06:48:55.585Z,1009.51
2017-12-25T06:49:56.193Z,1009.46
2017-12-25T06:50:56.803Z,1009.43
2017-12-25T06:51:57.401Z,1009.44
2017-12-25T06:52:58.002Z,1009.45
2017-12-25T06:53:58.604Z,1009.44
2017-12-25T06:54:59.206Z,1009.45
2017-12-25T06:55:59.806Z,1009.45
2017-12-25T06:57:00.416Z,1009.43
2017-12-25T06:58:01.012Z,1009.44
2017-12-25T06:59:01.606Z,1009.41
2017-12-25T07:00:02.199Z,1009.39
2017-12-25T07:01:02.807Z,1009.43
2017-12-25T07:02:03.418Z,1009.43
2017-12-25T07:03:04.027Z,1009.37
2017-12-25T07:04:04.623Z,1009.40
2017-12-25T07:05:05.224Z,1009.35
2017-12-25T07:06:05.819Z,1009.31
2017-12-25T07:07:06.411Z,1009.33
2017-12-25T07:08:07.021Z,1009.31
2017-12-25T07:09:07.627Z,1009.31
2017-12-25T07:10:08.227Z,1009.29
2017-12-25T07:11:08.835Z,1009.24
2017-12-25T07:12:09.428Z,1009.24
2017-12-25T07:13:10.030Z,1009.25
2017-12-25T07:14:10.624Z,1009.28
2017-12-25T07:15:11.224Z,1009.24
2017-12-25T07:16:11.820Z,1009.24
2017-12-25T07:17:12.432Z,1009.19
2017-12-25T07:18:13.043Z,1009.18
2017-12-25T07:19:13.649Z,1009.15
2017-12-25T07:20:14.256Z,1009.16
2017-12-25T07:21:14.864Z,1009.18
2017-12-25T07:22:15.465Z,1009.11
2017-12-25T07:23:16.061Z,1009.16
2017-12-25T07:24:16.658Z,1009.16
2017-12-25T07:25:17.271Z,1009.11
2017-12-25T07:26:17.874Z,1009.09
2017-12-25T07:27:18.480Z,1009.10
2017-12-25T07:28:19.085Z,1009.11
2017-12-25T07:29:19.686Z,1009.09
2017-12-25T07:30:20.295Z,1009.08
2017-12-25T07:31:20.911Z,1009.08
2017-12-25T07:32:21.532Z,1009.05
2017-12-25T07:33:22.140Z,1008.95
2017-12-25T07:34:22.745Z,1009.05
2017-12-25T07:35:23.360Z,1009.00
2017-12-25T07:36:23.963Z,1009.02
2017-12-25T07:37:24.574Z,1008.97
2017-12-25T07:38:25.175Z,1008.98
2017-12-25T07:39:25.776Z,1009.00
2017-12-25T07:40:26.375Z,1009.03
2017-12-25T07:41:26.980Z,1009.04
2017-12-25T07:42:27.577Z,1008.98
2017-12-25T07:43:28.177Z,1009.02
2017-12-25T07:44:28.792Z,1009.04
2017-12-25T07:45:29.433Z,1009.04
2017-12-25T07:46:29.997Z,1008.99
2017-12-25T07:47:30.609Z,1008.98
2017-12-25T07:48:31.214Z,1009.01
2017-12-25T07:49:31.809Z,1008.98
2017-12-25T07:50:32.405Z,1009.02
2017-12-25T07:51:33.008Z,1008.96
2017-12-25T07:52:33.614Z,1008.97
2017-12-25T07:53:34.213Z,1008.97
2017-12-25T07:54:34.844Z,1008.96
2017-12-25T07:55:35.439Z,1008.95
2017-12-25T07:56:36.039Z,1009.00
2017-12-25T07:57:36.643Z,1008.93
2017-12-25T07:58:37.255Z,1008.95
2017-12-25T07:59:37.853Z,1008.97
2017-12-25T08:00:38.470Z,1008.96
2017-12-25T08:01:39.111Z,1008.95
2017-12-25T08:02:39.680Z,1008.90
2017-12-25T08:03:40.286Z,1008.93
2017-12-25T08:04:40.892Z,1008.90
2017-12-25T08:05:41.492Z,1008.89
2017-12-25T08:06:42.091Z,1008.93
2017-12-25T08:07:42.698Z,1008.91
2017-12-25T08:08:43.291Z,1008.90
2017-12-25T08:09:43.887Z,1008.89
2017-12-25T08:10:44.495Z,1008.93
2017-12-25T08:11:45.100Z,1008.89
2017-12-25T08:12:45.698Z,1008.90
2017-12-25T08:13:46.355Z,1008.92
2017-12-25T08:14:46.915Z,1008.87
2017-12-25T08:15:47.529Z,1008.88
2017-12-25T08:16:48.130Z,1008.93
2017-12-25T08:17:48.736Z,1008.88
2017-12-25T08:18:49.331Z,1008.89
2017-12-25T08:19:49.937Z,1008.87
2017-12-25T08:20:50.547Z,1008.90
2017-12-25T08:21:51.155Z,1008.93
2017-12-25T08:22:51.778Z,1008.88
2017-12-25T08:23:52.363Z,1008.89
2017-12-25T08:24:52.975Z,1008.87
2017-12-25T08:25:53.582Z,1008.86
2017-12-25T08:26:54.177Z,1008.81
2017-12-25T08:27:54.781Z,1008.80
2017-12-25T08:28:55.385Z,1008.80
2017-12-25T08:29:55.998Z,1008.81
2017-12-25T08:30:56.596Z,1008.82
2017-12-25T08:31:57.204Z,1008.80
2017-12-25T08:32:57.821Z,1008.78
2017-12-25T08:33:58.429Z,1008.80
2017-12-25T08:34:59.045Z,1008.82
2017-12-25T08:35:59.651Z,1008.80
2017-12-25T08:37:00.265Z,1008.82
2017-12-25T08:38:00.874Z,1008.80
2017-12-25T08:39:01.475Z,1008.83
2017-12-25T08:40:02.077Z,1008.76
2017-12-25T08:41:02.693Z,1008.81
2017-12-25T08:42:03.305Z,1008.77
2017-12-25T08:43:03.908Z,1008.82
2017-12-25T08:44:04.514Z,1008.84
2017-12-25T08:45:05.122Z,1008.85
2017-12-25T08:46:05.730Z,1008.80
2017-12-25T08:47:06.330Z,1008.81
2017-12-25T08:48:06.940Z,1008.81
2017-12-25T08:49:07.550Z,1008.80
2017-12-25T08:50:08.168Z,1008.82
2017-12-25T08:51:08.777Z,1008.82
2017-12-25T08:52:09.391Z,1008.81
2017-12-25T08:53:09.990Z,1008.78
2017-12-25T08:54:10.587Z,1008.82
2017-12-25T08:55:11.191Z,1008.81
2017-12-25T08:56:11.803Z,1008.84
2017-12-25T08:57:12.427Z,1008.84
2017-12-25T08:58:13.030Z,1008.82
2017-12-25T08:59:13.636Z,1008.88
2017-12-25T09:00:14.242Z,1008.93
2017-12-25T09:01:14.851Z,1008.89
2017-12-25T09:02:15.460Z,1008.91
2017-12-25T09:03:16.051Z,1008.95
2017-12-25T09:04:16.662Z,1008.94
2017-12-25T09:05:17.274Z,1008.95
2017-12-25T09:06:17.871Z,1008.96
2017-12-25T09:07:18.492Z,1008.93
2017-12-25T09:08:19.082Z,1008.98
2017-12-25T09:09:19.676Z,1009.01
2017-12-25T09:10:20.278Z,1008.97
2017-12-25T09:11:20.889Z,1008.98
2017-12-25T09:12:21.502Z,1008.96
2017-12-25T09:13:22.104Z,1008.98
2017-12-25T09:14:22.701Z,1008.90
2017-12-25T09:15:23.303Z,1009.02
2017-12-25T09:16:23.912Z,1008.95
2017-12-25T09:17:24.524Z,1008.95
2017-12-25T09:18:25.119Z,1008.97
2017-12-25T09:19:25.730Z,1009.02
2017-12-25T09:20:26.343Z,1008.90
2017-12-25T09:21:26.955Z,1008.97
2017-12-25T09:22:27.560Z,1008.97
2017-12-25T09:23:28.170Z,1008.95
2017-12-25T09:24:28.770Z,1008.90
2017-12-25T09:25:29.382Z,1008.94
2017-12-25T09:26:29.980Z,1008.88
2017-12-25T09:27:30.592Z,1008.88
2017-12-25T09:28:31.210Z,1008.95
2017-12-25T09:29:31.826Z,1008.91
2017-12-25T09:30:32.428Z,1008.88
2017-12-25T09:31:33.041Z,1008.95
2017-12-25T09:32:33.659Z,1008.92
2017-12-25T09:33:34.267Z,1008.94
2017-12-25T09:34:34.881Z,1008.94
2017-12-25T09:35:35.483Z,1008.96
2017-12-25T09:36:36.078Z,1008.94
2017-12-25T09:37:36.684Z,1008.96
2017-12-25T09:38:37.298Z,1008.96
2017-12-25T09:39:37.911Z,1009.00
2017-12-25T09:40:38.517Z,1008.92
2017-12-25T09:41:39.157Z,1008.94
2017-12-25T09:42:39.742Z,1008.91
2017-12-25T09:43:40.342Z,1008.98
2017-12-25T09:44:40.949Z,1008.95
2017-12-25T09:45:41.553Z,1008.87
2017-12-25T09:46:42.159Z,1008.99
2017-12-25T09:47:42.768Z,1008.90
2017-12-25T09:48:43.380Z,1008.94
2017-12-25T09:49:43.987Z,1008.99
2017-12-25T09:50:44.589Z,1008.92
2017-12-25T09:51:45.197Z,1008.92
2017-12-25T09:52:45.816Z,1008.86
2017-12-25T09:53:46.423Z,1008.89
2017-12-25T09:54:47.034Z,1008.87
2017-12-25T09:55:47.640Z,1008.88
2017-12-25T09:56:48.248Z,1008.86
2017-12-25T09:57:48.865Z,1008.84
2017-12-25T09:58:49.479Z,1008.85
2017-12-25T09:59:50.093Z,1008.85
2017-12-25T10:00:50.704Z,1008.83
2017-12-25T10:01:51.316Z,1008.80
2017-12-25T10:02:51.914Z,1008.72
2017-12-25T10:03:52.523Z,1008.73
2017-12-25T10:04:53.133Z,1008.72
2017-12-25T10:05:53.750Z,1008.73
2017-12-25T10:06:54.366Z,1008.69
2017-12-25T10:07:54.975Z,1008.68
2017-12-25T10:08:55.579Z,1008.66
2017-12-25T10:09:56.184Z,1008.63
2017-12-25T10:10:56.794Z,1008.60
2017-12-25T10:11:57.390Z,1008.58
2017-12-25T10:12:57.997Z,1008.55
2017-12-25T10:13:58.595Z,1008.52
2017-12-25T10:14:59.202Z,1008.48
2017-12-25T10:15:59.800Z,1008.42
2017-12-25T10:17:00.399Z,1008.45
2017-12-25T10:18:01.004Z,1008.40
2017-12-25T10:19:01.613Z,1008.40
2017-12-25T10:20:02.231Z,1008.37
2017-12-25T10:21:02.848Z,1008.37
2017-12-25T10:22:03.461Z,1008.36
2017-12-25T10:23:04.075Z,1008.29
2017-12-25T10:24:04.674Z,1008.35
2017-12-25T10:25:05.293Z,1008.37
2017-12-25T10:26:05.895Z,1008.37
2017-12-25T10:27:06.498Z,1008.32
2017-12-25T10:28:07.108Z,1008.29
2017-12-25T10:29:07.715Z,1008.24
2017-12-25T10:30:08.320Z,1008.29
2017-12-25T10:31:08.928Z,1008.23
2017-12-25T10:32:09.546Z,1008.17
2017-12-25T10:33:10.163Z,1008.19
2017-12-25T10:34:10.782Z,1008.22
2017-12-25T10:35:11.387Z,1008.22
2017-12-25T10:36:11.999Z,1008.20
2017-12-25T10:37:12.613Z,1008.18
2017-12-25T10:38:13.224Z,1008.12
2017-12-25T10:39:13.836Z,1008.15
2017-12-25T10:40:14.435Z,1008.15
2017-12-25T10:41:15.052Z,1008.10
2017-12-25T10:42:15.655Z,1008.07
2017-12-25T10:43:16.264Z,1008.07
2017-12-25T10:44:16.880Z,1008.05
2017-12-25T10:45:17.482Z,1008.05
2017-12-25T10:46:18.100Z,1008.00
2017-12-25T10:47:18.721Z,1007.97
2017-12-25T10:48:19.324Z,1007.99
2017-12-25T10:49:19.927Z,1007.97
2017-12-25T10:50:20.533Z,1007.94
2017-12-25T10:51:21.141Z,1007.93
2017-12-25T10:52:21.757Z,1007.92
2017-12-25T10:53:22.373Z,1007.87
2017-12-25T10:54:22.980Z,1007.87
2017-12-25T10:55:23.603Z,1007.86
2017-12-25T10:56:24.218Z,1007.86
2017-12-25T10:57:24.828Z,1007.81
2017-12-25T10:58:25.443Z,1007.77
2017-12-25T10:59:26.047Z,1007.78
2017-12-25T11:00:26.646Z,1007.75
2017-12-25T11:01:27.252Z,1007.70
2017-12-25T11:02:27.850Z,1007.71
2017-12-25T11:03:28.447Z,1007.73
2017-12-25T11:04:29.043Z,1007.73
2017-12-25T11:05:29.655Z,1007.72
2017-12-25T11:06:30.263Z,1007.75
2017-12-25T11:07:30.879Z,1007.70
2017-12-25T11:08:31.498Z,1007.73
2017-12-25T11:09:32.120Z,1007.69
2017-12-25T11:10:32.734Z,1007.66
2017-12-25T11:11:33.339Z,1007.60
2017-12-25T11:12:33.955Z,1007.63
2017-12-25T11:13:34.554Z,1007.60
2017-12-25T11:14:35.153Z,1007.61
2017-12-25T11:15:35.759Z,1007.60
2017-12-25T11:16:36.362Z,1007.58
2017-12-25T11:17:36.986Z,1007.54
2017-12-25T11:18:37.603Z,1007.55
2017-12-25T11:19:38.226Z,1007.53
2017-12-25T11:20:38.850Z,1007.50
2017-12-25T11:21:39.461Z,1007.49
2017-12-25T11:22:40.077Z,1007.47
2017-12-25T11:23:40.666Z,1007.49
2017-12-25T11:24:41.283Z,1007.42
2017-12-25T11:25:41.893Z,1007.42
2017-12-25T11:26:42.499Z,1007.44
2017-12-25T11:27:43.101Z,1007.43
2017-12-25T11:28:43.716Z,1007.43
2017-12-25T11:29:44.335Z,1007.38
2017-12-25T11:30:44.944Z,1007.35
2017-12-25T11:31:45.546Z,1007.35
2017-12-25T11:32:46.153Z,1007.33
2017-12-25T11:33:46.772Z,1007.34
2017-12-25T11:34:47.387Z,1007.29
2017-12-25T11:35:47.996Z,1007.26
2017-12-25T11:36:48.607Z,1007.21
2017-12-25T11:37:49.214Z,1007.27
2017-12-25T11:38:49.828Z,1007.25
2017-12-25T11:39:50.444Z,1007.21
2017-12-25T11:40:51.039Z,1007.19
2017-12-25T11:41:51.644Z,1007.13
2017-12-25T11:42:52.261Z,1007.13
2017-12-25T11:43:52.873Z,1007.07
2017-12-25T11:44:53.501Z,1007.12
2017-12-25T11:45:54.109Z,1007.03
2017-12-25T11:46:54.719Z,1006.97
2017-12-25T11:47:55.316Z,1007.04
2017-12-25T11:48:55.915Z,1007.01
2017-12-25T11:49:56.513Z,1006.98
2017-12-25T11:50:57.121Z,1006.93
2017-12-25T11:51:57.723Z,1006.93
2017-12-25T11:52:58.337Z,1006.97
2017-12-25T11:53:58.950Z,1006.93
2017-12-25T11:54:59.544Z,1006.92
2017-12-25T11:56:00.152Z,1006.94
2017-12-25T11:57:00.770Z,1006.93
2017-12-25T11:58:01.378Z,1006.92
2017-12-25T11:59:01.996Z,1006.86
2017-12-25T12:00:02.597Z,1006.86
2017-12-25T12:01:03.206Z,1006.86
2017-12-25T12:02:03.819Z,1006.86
2017-12-25T12:03:04.419Z,1006.88
2017-12-25T12:04:05.032Z,1006.82
2017-12-25T12:05:05.630Z,1006.82
2017-12-25T12:06:06.235Z,1006.82
2017-12-25T12:07:06.850Z,1006.74
2017-12-25T12:08:07.463Z,1006.76
2017-12-25T12:09:08.083Z,1006.73
2017-12-25T12:10:08.684Z,1006.72
2017-12-25T12:11:09.300Z,1006.74
2017-12-25T12:12:09.911Z,1006.67
2017-12-25T12:13:10.517Z,1006.55